sensor_id;sensor_type;location;lat;lon;timestamp;P1;durP1;ratioP1;P2;durP2;ratioP2
3347;SDS011;1687;49.540;8.574;2023-04-23T00:01:04;5.50;;;3.10;;
3347;SDS011;1687;49.540;8.574;2023-04-23T00:03:32;4.53;;;2.50;;
3347;SDS011;1687;49.540;8.574;2023-04-23T00:06:06;8.80;;;3.70;;
3347;SDS011;1687;49.540;8.574;2023-04-23T00:08:39;6.77;;;2.90;;
3347;SDS011;1687;49.540;8.574;2023-04-23T00:11:06;4.00;;;2.40;;
3347;SDS011;1687;49.540;8.574;2023-04-23T00:13:33;5.47;;;2.93;;
3347;SDS011;1687;49.540;8.574;2023-04-23T00:16:00;6.60;;;3.00;;
3347;SDS011;1687;49.540;8.574;2023-04-23T00:18:26;5.33;;;2.93;;
3347;SDS011;1687;49.540;8.574;2023-04-23T00:20:51;6.20;;;2.87;;
3347;SDS011;1687;49.540;8.574;2023-04-23T00:23:17;9.10;;;3.00;;
3347;SDS011;1687;49.540;8.574;2023-04-23T00:25:43;5.63;;;3.27;;
3347;SDS011;1687;49.540;8.574;2023-04-23T00:28:08;6.33;;;2.80;;
3347;SDS011;1687;49.540;8.574;2023-04-23T00:30:34;10.57;;;3.53;;
3347;SDS011;1687;49.540;8.574;2023-04-23T00:33:00;6.50;;;2.87;;
3347;SDS011;1687;49.540;8.574;2023-04-23T00:35:25;6.23;;;3.07;;
3347;SDS011;1687;49.540;8.574;2023-04-23T00:37:51;5.67;;;2.83;;
3347;SDS011;1687;49.540;8.574;2023-04-23T00:40:17;3.90;;;2.73;;
3347;SDS011;1687;49.540;8.574;2023-04-23T00:42:44;6.17;;;3.20;;
3347;SDS011;1687;49.540;8.574;2023-04-23T00:45:10;5.87;;;2.87;;
3347;SDS011;1687;49.540;8.574;2023-04-23T00:47:36;4.90;;;2.60;;
3347;SDS011;1687;49.540;8.574;2023-04-23T00:50:02;5.30;;;3.00;;
3347;SDS011;1687;49.540;8.574;2023-04-23T00:52:28;3.83;;;2.40;;
3347;SDS011;1687;49.540;8.574;2023-04-23T00:54:54;6.47;;;2.83;;
3347;SDS011;1687;49.540;8.574;2023-04-23T00:57:20;8.47;;;3.50;;
3347;SDS011;1687;49.540;8.574;2023-04-23T00:59:47;8.57;;;3.00;;
3347;SDS011;1687;49.540;8.574;2023-04-23T01:02:13;8.20;;;3.47;;
3347;SDS011;1687;49.540;8.574;2023-04-23T01:04:39;4.70;;;2.77;;
3347;SDS011;1687;49.540;8.574;2023-04-23T01:07:08;6.70;;;4.03;;
3347;SDS011;1687;49.540;8.574;2023-04-23T01:09:35;4.97;;;2.73;;
3347;SDS011;1687;49.540;8.574;2023-04-23T01:12:01;6.03;;;3.40;;
3347;SDS011;1687;49.540;8.574;2023-04-23T01:14:30;4.80;;;2.93;;
3347;SDS011;1687;49.540;8.574;2023-04-23T01:16:56;6.30;;;2.97;;
3347;SDS011;1687;49.540;8.574;2023-04-23T01:19:22;6.17;;;3.97;;
3347;SDS011;1687;49.540;8.574;2023-04-23T01:21:48;7.17;;;3.83;;
3347;SDS011;1687;49.540;8.574;2023-04-23T01:24:15;17.97;;;4.20;;
3347;SDS011;1687;49.540;8.574;2023-04-23T01:26:40;6.27;;;4.07;;
3347;SDS011;1687;49.540;8.574;2023-04-23T01:29:06;8.07;;;4.17;;
3347;SDS011;1687;49.540;8.574;2023-04-23T01:31:33;7.20;;;4.00;;
3347;SDS011;1687;49.540;8.574;2023-04-23T01:34:00;7.93;;;4.60;;
3347;SDS011;1687;49.540;8.574;2023-04-23T01:36:27;9.10;;;4.70;;
3347;SDS011;1687;49.540;8.574;2023-04-23T01:38:53;7.13;;;3.53;;
3347;SDS011;1687;49.540;8.574;2023-04-23T01:41:19;6.00;;;3.70;;
3347;SDS011;1687;49.540;8.574;2023-04-23T01:43:45;7.37;;;3.77;;
3347;SDS011;1687;49.540;8.574;2023-04-23T01:46:11;10.80;;;4.80;;
3347;SDS011;1687;49.540;8.574;2023-04-23T01:48:37;7.20;;;3.90;;
3347;SDS011;1687;49.540;8.574;2023-04-23T01:51:03;6.90;;;3.97;;
3347;SDS011;1687;49.540;8.574;2023-04-23T01:53:29;14.03;;;3.90;;
3347;SDS011;1687;49.540;8.574;2023-04-23T01:55:55;8.20;;;4.33;;
3347;SDS011;1687;49.540;8.574;2023-04-23T01:58:21;7.00;;;4.10;;
3347;SDS011;1687;49.540;8.574;2023-04-23T02:00:50;6.40;;;3.80;;
3347;SDS011;1687;49.540;8.574;2023-04-23T02:03:16;7.73;;;4.00;;
3347;SDS011;1687;49.540;8.574;2023-04-23T02:05:42;5.37;;;3.67;;
3347;SDS011;1687;49.540;8.574;2023-04-23T02:08:08;12.40;;;4.13;;
3347;SDS011;1687;49.540;8.574;2023-04-23T02:10:34;14.20;;;4.80;;
3347;SDS011;1687;49.540;8.574;2023-04-23T02:13:00;10.30;;;4.33;;
3347;SDS011;1687;49.540;8.574;2023-04-23T02:15:27;8.03;;;4.70;;
3347;SDS011;1687;49.540;8.574;2023-04-23T02:17:53;7.87;;;4.40;;
3347;SDS011;1687;49.540;8.574;2023-04-23T02:20:19;7.73;;;4.63;;
3347;SDS011;1687;49.540;8.574;2023-04-23T02:22:46;8.20;;;4.63;;
3347;SDS011;1687;49.540;8.574;2023-04-23T02:25:13;10.80;;;5.30;;
3347;SDS011;1687;49.540;8.574;2023-04-23T02:27:40;7.90;;;4.43;;
3347;SDS011;1687;49.540;8.574;2023-04-23T02:30:06;10.00;;;4.40;;
3347;SDS011;1687;49.540;8.574;2023-04-23T02:32:33;7.63;;;4.67;;
3347;SDS011;1687;49.540;8.574;2023-04-23T02:35:01;8.43;;;4.70;;
3347;SDS011;1687;49.540;8.574;2023-04-23T02:37:27;14.83;;;4.13;;
3347;SDS011;1687;49.540;8.574;2023-04-23T02:39:53;8.13;;;4.13;;
3347;SDS011;1687;49.540;8.574;2023-04-23T02:42:18;7.03;;;4.57;;
3347;SDS011;1687;49.540;8.574;2023-04-23T02:44:44;6.50;;;3.60;;
3347;SDS011;1687;49.540;8.574;2023-04-23T02:47:10;7.90;;;4.47;;
3347;SDS011;1687;49.540;8.574;2023-04-23T02:49:35;12.80;;;4.70;;
3347;SDS011;1687;49.540;8.574;2023-04-23T02:52:01;6.60;;;3.97;;
3347;SDS011;1687;49.540;8.574;2023-04-23T02:54:27;7.07;;;4.00;;
3347;SDS011;1687;49.540;8.574;2023-04-23T02:56:53;9.10;;;4.40;;
3347;SDS011;1687;49.540;8.574;2023-04-23T02:59:19;7.20;;;3.87;;
3347;SDS011;1687;49.540;8.574;2023-04-23T03:01:44;9.00;;;4.20;;
3347;SDS011;1687;49.540;8.574;2023-04-23T03:04:10;9.20;;;4.20;;
3347;SDS011;1687;49.540;8.574;2023-04-23T03:06:36;9.43;;;4.73;;
3347;SDS011;1687;49.540;8.574;2023-04-23T03:09:01;11.40;;;4.90;;
3347;SDS011;1687;49.540;8.574;2023-04-23T03:11:27;12.70;;;5.20;;
3347;SDS011;1687;49.540;8.574;2023-04-23T03:13:53;8.00;;;3.83;;
3347;SDS011;1687;49.540;8.574;2023-04-23T03:16:19;9.57;;;4.90;;
3347;SDS011;1687;49.540;8.574;2023-04-23T03:18:44;7.90;;;4.20;;
3347;SDS011;1687;49.540;8.574;2023-04-23T03:21:10;10.57;;;4.70;;
3347;SDS011;1687;49.540;8.574;2023-04-23T03:23:36;10.57;;;5.47;;
3347;SDS011;1687;49.540;8.574;2023-04-23T03:26:02;9.20;;;5.47;;
3347;SDS011;1687;49.540;8.574;2023-04-23T03:28:29;7.77;;;4.50;;
3347;SDS011;1687;49.540;8.574;2023-04-23T03:30:55;7.63;;;4.80;;
3347;SDS011;1687;49.540;8.574;2023-04-23T03:33:20;12.93;;;4.67;;
3347;SDS011;1687;49.540;8.574;2023-04-23T03:35:46;8.27;;;4.83;;
3347;SDS011;1687;49.540;8.574;2023-04-23T03:38:12;8.40;;;4.47;;
3347;SDS011;1687;49.540;8.574;2023-04-23T03:40:38;8.80;;;4.60;;
3347;SDS011;1687;49.540;8.574;2023-04-23T03:43:04;6.93;;;4.30;;
3347;SDS011;1687;49.540;8.574;2023-04-23T03:45:29;8.90;;;4.43;;
3347;SDS011;1687;49.540;8.574;2023-04-23T03:47:55;7.90;;;4.23;;
3347;SDS011;1687;49.540;8.574;2023-04-23T03:50:21;11.63;;;4.60;;
3347;SDS011;1687;49.540;8.574;2023-04-23T03:52:46;7.23;;;4.17;;
3347;SDS011;1687;49.540;8.574;2023-04-23T03:55:12;7.87;;;4.03;;
3347;SDS011;1687;49.540;8.574;2023-04-23T03:57:37;7.90;;;3.90;;
3347;SDS011;1687;49.540;8.574;2023-04-23T04:00:03;6.07;;;3.97;;
3347;SDS011;1687;49.540;8.574;2023-04-23T04:02:36;10.53;;;4.50;;
3347;SDS011;1687;49.540;8.574;2023-04-23T04:05:03;11.20;;;4.67;;
3347;SDS011;1687;49.540;8.574;2023-04-23T04:07:30;9.50;;;4.80;;
3347;SDS011;1687;49.540;8.574;2023-04-23T04:09:56;8.33;;;4.70;;
3347;SDS011;1687;49.540;8.574;2023-04-23T04:12:21;9.27;;;4.27;;
3347;SDS011;1687;49.540;8.574;2023-04-23T04:14:47;6.57;;;3.60;;
3347;SDS011;1687;49.540;8.574;2023-04-23T04:17:13;9.50;;;4.00;;
3347;SDS011;1687;49.540;8.574;2023-04-23T04:19:40;7.27;;;3.80;;
3347;SDS011;1687;49.540;8.574;2023-04-23T04:22:07;9.80;;;5.33;;
3347;SDS011;1687;49.540;8.574;2023-04-23T04:24:33;6.63;;;3.63;;
3347;SDS011;1687;49.540;8.574;2023-04-23T04:26:59;6.77;;;4.07;;
3347;SDS011;1687;49.540;8.574;2023-04-23T04:29:26;6.97;;;3.90;;
3347;SDS011;1687;49.540;8.574;2023-04-23T04:31:55;6.63;;;4.20;;
3347;SDS011;1687;49.540;8.574;2023-04-23T04:34:21;6.53;;;3.73;;
3347;SDS011;1687;49.540;8.574;2023-04-23T04:36:47;4.50;;;2.43;;
3347;SDS011;1687;49.540;8.574;2023-04-23T04:39:13;5.67;;;2.93;;
3347;SDS011;1687;49.540;8.574;2023-04-23T04:41:38;5.37;;;2.70;;
3347;SDS011;1687;49.540;8.574;2023-04-23T04:44:05;4.40;;;2.40;;
3347;SDS011;1687;49.540;8.574;2023-04-23T04:46:34;4.60;;;2.53;;
3347;SDS011;1687;49.540;8.574;2023-04-23T04:49:10;4.53;;;2.70;;
3347;SDS011;1687;49.540;8.574;2023-04-23T04:51:36;5.27;;;3.03;;
3347;SDS011;1687;49.540;8.574;2023-04-23T04:54:04;8.00;;;3.80;;
3347;SDS011;1687;49.540;8.574;2023-04-23T04:56:31;5.20;;;3.33;;
3347;SDS011;1687;49.540;8.574;2023-04-23T04:58:58;9.10;;;4.13;;
3347;SDS011;1687;49.540;8.574;2023-04-23T05:01:23;8.37;;;3.97;;
3347;SDS011;1687;49.540;8.574;2023-04-23T05:03:51;6.60;;;3.80;;
3347;SDS011;1687;49.540;8.574;2023-04-23T05:06:17;6.67;;;4.10;;
3347;SDS011;1687;49.540;8.574;2023-04-23T05:08:43;13.83;;;4.17;;
3347;SDS011;1687;49.540;8.574;2023-04-23T05:11:12;9.30;;;4.40;;
3347;SDS011;1687;49.540;8.574;2023-04-23T05:13:39;8.87;;;3.53;;
3347;SDS011;1687;49.540;8.574;2023-04-23T05:16:05;9.30;;;4.23;;
3347;SDS011;1687;49.540;8.574;2023-04-23T05:18:31;6.30;;;3.73;;
3347;SDS011;1687;49.540;8.574;2023-04-23T05:20:56;4.67;;;2.63;;
3347;SDS011;1687;49.540;8.574;2023-04-23T05:23:22;6.10;;;3.70;;
3347;SDS011;1687;49.540;8.574;2023-04-23T05:25:48;6.40;;;3.47;;
3347;SDS011;1687;49.540;8.574;2023-04-23T05:28:15;8.70;;;3.80;;
3347;SDS011;1687;49.540;8.574;2023-04-23T05:30:41;7.10;;;3.50;;
3347;SDS011;1687;49.540;8.574;2023-04-23T05:33:07;7.50;;;4.10;;
3347;SDS011;1687;49.540;8.574;2023-04-23T05:35:33;5.50;;;3.23;;
3347;SDS011;1687;49.540;8.574;2023-04-23T05:37:59;6.53;;;3.57;;
3347;SDS011;1687;49.540;8.574;2023-04-23T05:40:26;10.83;;;4.97;;
3347;SDS011;1687;49.540;8.574;2023-04-23T05:42:52;10.97;;;4.70;;
3347;SDS011;1687;49.540;8.574;2023-04-23T05:45:18;9.20;;;4.20;;
3347;SDS011;1687;49.540;8.574;2023-04-23T05:47:45;6.50;;;3.60;;
3347;SDS011;1687;49.540;8.574;2023-04-23T05:50:10;6.37;;;3.70;;
3347;SDS011;1687;49.540;8.574;2023-04-23T05:52:36;6.97;;;4.13;;
3347;SDS011;1687;49.540;8.574;2023-04-23T05:55:02;7.33;;;4.47;;
3347;SDS011;1687;49.540;8.574;2023-04-23T05:57:27;9.20;;;5.07;;
3347;SDS011;1687;49.540;8.574;2023-04-23T05:59:53;8.47;;;4.53;;
3347;SDS011;1687;49.540;8.574;2023-04-23T06:02:19;8.83;;;4.90;;
3347;SDS011;1687;49.540;8.574;2023-04-23T06:04:45;12.07;;;5.73;;
3347;SDS011;1687;49.540;8.574;2023-04-23T06:07:11;13.87;;;6.73;;
3347;SDS011;1687;49.540;8.574;2023-04-23T06:09:38;7.27;;;4.13;;
3347;SDS011;1687;49.540;8.574;2023-04-23T06:12:03;7.73;;;4.63;;
3347;SDS011;1687;49.540;8.574;2023-04-23T06:14:30;9.00;;;3.93;;
3347;SDS011;1687;49.540;8.574;2023-04-23T06:16:55;14.17;;;6.73;;
3347;SDS011;1687;49.540;8.574;2023-04-23T06:19:21;11.50;;;6.37;;
3347;SDS011;1687;49.540;8.574;2023-04-23T06:21:49;6.87;;;4.20;;
3347;SDS011;1687;49.540;8.574;2023-04-23T06:24:15;8.00;;;4.23;;
3347;SDS011;1687;49.540;8.574;2023-04-23T06:26:41;12.23;;;5.40;;
3347;SDS011;1687;49.540;8.574;2023-04-23T06:29:06;10.90;;;4.87;;
3347;SDS011;1687;49.540;8.574;2023-04-23T06:31:32;16.77;;;5.00;;
3347;SDS011;1687;49.540;8.574;2023-04-23T06:33:58;10.93;;;5.07;;
3347;SDS011;1687;49.540;8.574;2023-04-23T06:36:23;12.03;;;5.93;;
3347;SDS011;1687;49.540;8.574;2023-04-23T06:38:50;8.97;;;5.57;;
3347;SDS011;1687;49.540;8.574;2023-04-23T06:41:15;7.90;;;4.70;;
3347;SDS011;1687;49.540;8.574;2023-04-23T06:43:42;10.80;;;6.17;;
3347;SDS011;1687;49.540;8.574;2023-04-23T06:46:07;9.87;;;4.30;;
3347;SDS011;1687;49.540;8.574;2023-04-23T06:48:33;7.80;;;4.00;;
3347;SDS011;1687;49.540;8.574;2023-04-23T06:50:59;7.13;;;4.33;;
3347;SDS011;1687;49.540;8.574;2023-04-23T06:53:25;9.90;;;5.10;;
3347;SDS011;1687;49.540;8.574;2023-04-23T06:55:50;12.60;;;4.30;;
3347;SDS011;1687;49.540;8.574;2023-04-23T06:58:16;13.00;;;5.73;;
3347;SDS011;1687;49.540;8.574;2023-04-23T07:00:42;10.97;;;5.03;;
3347;SDS011;1687;49.540;8.574;2023-04-23T07:03:08;8.57;;;4.60;;
3347;SDS011;1687;49.540;8.574;2023-04-23T07:05:33;10.10;;;4.90;;
3347;SDS011;1687;49.540;8.574;2023-04-23T07:07:59;12.50;;;5.00;;
3347;SDS011;1687;49.540;8.574;2023-04-23T07:10:25;8.03;;;3.63;;
3347;SDS011;1687;49.540;8.574;2023-04-23T07:12:51;11.20;;;3.90;;
3347;SDS011;1687;49.540;8.574;2023-04-23T07:15:16;8.00;;;3.90;;
3347;SDS011;1687;49.540;8.574;2023-04-23T07:17:42;7.30;;;3.77;;
3347;SDS011;1687;49.540;8.574;2023-04-23T07:20:08;7.03;;;3.80;;
3347;SDS011;1687;49.540;8.574;2023-04-23T07:22:33;9.87;;;4.87;;
3347;SDS011;1687;49.540;8.574;2023-04-23T07:24:59;9.53;;;4.40;;
3347;SDS011;1687;49.540;8.574;2023-04-23T07:27:25;10.80;;;4.40;;
3347;SDS011;1687;49.540;8.574;2023-04-23T07:29:51;6.00;;;3.40;;
3347;SDS011;1687;49.540;8.574;2023-04-23T07:32:17;10.17;;;4.67;;
3347;SDS011;1687;49.540;8.574;2023-04-23T07:34:42;7.83;;;3.80;;
3347;SDS011;1687;49.540;8.574;2023-04-23T07:37:08;6.30;;;4.03;;
3347;SDS011;1687;49.540;8.574;2023-04-23T07:39:34;8.60;;;4.77;;
3347;SDS011;1687;49.540;8.574;2023-04-23T07:42:00;7.17;;;4.10;;
3347;SDS011;1687;49.540;8.574;2023-04-23T07:44:29;7.63;;;3.80;;
3347;SDS011;1687;49.540;8.574;2023-04-23T07:46:55;5.43;;;3.07;;
3347;SDS011;1687;49.540;8.574;2023-04-23T07:49:21;6.27;;;3.70;;
3347;SDS011;1687;49.540;8.574;2023-04-23T07:51:47;14.30;;;5.33;;
3347;SDS011;1687;49.540;8.574;2023-04-23T07:54:13;7.80;;;4.00;;
3347;SDS011;1687;49.540;8.574;2023-04-23T07:56:38;9.50;;;4.57;;
3347;SDS011;1687;49.540;8.574;2023-04-23T07:59:04;6.27;;;3.37;;
3347;SDS011;1687;49.540;8.574;2023-04-23T08:01:31;5.13;;;3.50;;
3347;SDS011;1687;49.540;8.574;2023-04-23T08:03:57;9.03;;;4.23;;
3347;SDS011;1687;49.540;8.574;2023-04-23T08:06:24;4.73;;;2.80;;
3347;SDS011;1687;49.540;8.574;2023-04-23T08:08:51;10.43;;;3.40;;
3347;SDS011;1687;49.540;8.574;2023-04-23T08:11:17;6.27;;;3.10;;
3347;SDS011;1687;49.540;8.574;2023-04-23T08:13:43;6.13;;;3.40;;
3347;SDS011;1687;49.540;8.574;2023-04-23T08:16:09;5.50;;;3.30;;
3347;SDS011;1687;49.540;8.574;2023-04-23T08:18:35;4.83;;;3.10;;
3347;SDS011;1687;49.540;8.574;2023-04-23T08:21:00;8.23;;;3.30;;
3347;SDS011;1687;49.540;8.574;2023-04-23T08:23:26;5.13;;;3.07;;
3347;SDS011;1687;49.540;8.574;2023-04-23T08:25:52;5.97;;;3.50;;
3347;SDS011;1687;49.540;8.574;2023-04-23T08:28:18;7.10;;;3.93;;
3347;SDS011;1687;49.540;8.574;2023-04-23T08:30:44;5.17;;;2.97;;
3347;SDS011;1687;49.540;8.574;2023-04-23T08:33:10;7.37;;;3.77;;
3347;SDS011;1687;49.540;8.574;2023-04-23T08:35:36;10.47;;;4.30;;
3347;SDS011;1687;49.540;8.574;2023-04-23T08:38:02;6.30;;;3.30;;
3347;SDS011;1687;49.540;8.574;2023-04-23T08:40:29;13.00;;;6.83;;
3347;SDS011;1687;49.540;8.574;2023-04-23T08:43:02;6.53;;;4.07;;
3347;SDS011;1687;49.540;8.574;2023-04-23T08:45:36;7.50;;;3.90;;
3347;SDS011;1687;49.540;8.574;2023-04-23T08:48:05;4.80;;;3.10;;
3347;SDS011;1687;49.540;8.574;2023-04-23T08:50:31;5.90;;;3.50;;
3347;SDS011;1687;49.540;8.574;2023-04-23T08:52:57;5.13;;;2.73;;
3347;SDS011;1687;49.540;8.574;2023-04-23T08:55:24;6.00;;;2.90;;
3347;SDS011;1687;49.540;8.574;2023-04-23T08:57:50;10.23;;;3.30;;
3347;SDS011;1687;49.540;8.574;2023-04-23T09:00:20;6.13;;;3.30;;
3347;SDS011;1687;49.540;8.574;2023-04-23T09:02:49;5.57;;;2.90;;
3347;SDS011;1687;49.540;8.574;2023-04-23T09:05:15;5.50;;;3.00;;
3347;SDS011;1687;49.540;8.574;2023-04-23T09:07:41;5.80;;;3.20;;
3347;SDS011;1687;49.540;8.574;2023-04-23T09:10:08;8.17;;;3.20;;
3347;SDS011;1687;49.540;8.574;2023-04-23T09:12:37;6.07;;;3.10;;
3347;SDS011;1687;49.540;8.574;2023-04-23T09:15:05;4.73;;;2.83;;
3347;SDS011;1687;49.540;8.574;2023-04-23T09:17:36;7.77;;;4.13;;
3347;SDS011;1687;49.540;8.574;2023-04-23T09:20:07;4.97;;;2.80;;
3347;SDS011;1687;49.540;8.574;2023-04-23T09:25:17;5.70;;;2.50;;
3347;SDS011;1687;49.540;8.574;2023-04-23T09:27:45;3.73;;;2.70;;
3347;SDS011;1687;49.540;8.574;2023-04-23T09:30:13;8.60;;;3.73;;
3347;SDS011;1687;49.540;8.574;2023-04-23T09:32:40;4.77;;;2.67;;
3347;SDS011;1687;49.540;8.574;2023-04-23T09:35:11;8.37;;;3.30;;
3347;SDS011;1687;49.540;8.574;2023-04-23T09:37:40;5.17;;;3.17;;
3347;SDS011;1687;49.540;8.574;2023-04-23T09:40:09;9.40;;;3.27;;
3347;SDS011;1687;49.540;8.574;2023-04-23T09:42:38;6.30;;;3.13;;
3347;SDS011;1687;49.540;8.574;2023-04-23T09:45:05;4.27;;;2.73;;
3347;SDS011;1687;49.540;8.574;2023-04-23T09:47:33;10.80;;;3.33;;
3347;SDS011;1687;49.540;8.574;2023-04-23T09:50:02;4.77;;;2.80;;
3347;SDS011;1687;49.540;8.574;2023-04-23T09:52:30;6.07;;;3.43;;
3347;SDS011;1687;49.540;8.574;2023-04-23T09:54:57;5.17;;;3.33;;
3347;SDS011;1687;49.540;8.574;2023-04-23T09:57:26;5.33;;;2.90;;
3347;SDS011;1687;49.540;8.574;2023-04-23T09:59:52;6.53;;;3.60;;
3347;SDS011;1687;49.540;8.574;2023-04-23T10:02:25;4.60;;;3.10;;
3347;SDS011;1687;49.540;8.574;2023-04-23T10:04:52;8.60;;;3.30;;
3347;SDS011;1687;49.540;8.574;2023-04-23T10:07:18;5.80;;;3.20;;
3347;SDS011;1687;49.540;8.574;2023-04-23T10:09:45;13.43;;;3.13;;
3347;SDS011;1687;49.540;8.574;2023-04-23T10:12:11;6.60;;;3.10;;
3347;SDS011;1687;49.540;8.574;2023-04-23T10:14:38;7.50;;;3.40;;
3347;SDS011;1687;49.540;8.574;2023-04-23T10:17:06;7.67;;;3.30;;
3347;SDS011;1687;49.540;8.574;2023-04-23T10:19:34;4.70;;;3.30;;
3347;SDS011;1687;49.540;8.574;2023-04-23T10:22:04;5.97;;;3.70;;
3347;SDS011;1687;49.540;8.574;2023-04-23T10:24:37;5.60;;;2.70;;
3347;SDS011;1687;49.540;8.574;2023-04-23T10:27:05;5.20;;;3.57;;
3347;SDS011;1687;49.540;8.574;2023-04-23T10:29:37;15.13;;;3.03;;
3347;SDS011;1687;49.540;8.574;2023-04-23T10:32:03;4.50;;;2.70;;
3347;SDS011;1687;49.540;8.574;2023-04-23T10:34:31;6.47;;;2.70;;
3347;SDS011;1687;49.540;8.574;2023-04-23T10:36:58;3.53;;;2.47;;
3347;SDS011;1687;49.540;8.574;2023-04-23T10:39:26;3.80;;;2.63;;
3347;SDS011;1687;49.540;8.574;2023-04-23T10:42:00;3.93;;;1.90;;
3347;SDS011;1687;49.540;8.574;2023-04-23T10:44:37;5.77;;;2.10;;
3347;SDS011;1687;49.540;8.574;2023-04-23T10:47:09;3.73;;;2.50;;
3347;SDS011;1687;49.540;8.574;2023-04-23T10:49:40;3.60;;;2.70;;
3347;SDS011;1687;49.540;8.574;2023-04-23T10:52:08;5.60;;;2.97;;
3347;SDS011;1687;49.540;8.574;2023-04-23T10:54:40;4.60;;;2.37;;
3347;SDS011;1687;49.540;8.574;2023-04-23T10:57:27;6.40;;;3.23;;
3347;SDS011;1687;49.540;8.574;2023-04-23T10:59:53;4.67;;;2.53;;
3347;SDS011;1687;49.540;8.574;2023-04-23T11:02:22;4.07;;;1.90;;
3347;SDS011;1687;49.540;8.574;2023-04-23T11:04:58;5.57;;;2.63;;
3347;SDS011;1687;49.540;8.574;2023-04-23T11:07:29;4.60;;;2.47;;
3347;SDS011;1687;49.540;8.574;2023-04-23T11:10:09;4.13;;;2.20;;
3347;SDS011;1687;49.540;8.574;2023-04-23T11:12:37;4.03;;;2.80;;
3347;SDS011;1687;49.540;8.574;2023-04-23T11:15:11;3.83;;;2.70;;
3347;SDS011;1687;49.540;8.574;2023-04-23T11:20:12;4.80;;;2.60;;
3347;SDS011;1687;49.540;8.574;2023-04-23T11:22:46;3.10;;;2.10;;
3347;SDS011;1687;49.540;8.574;2023-04-23T11:25:14;3.27;;;1.87;;
3347;SDS011;1687;49.540;8.574;2023-04-23T11:27:45;3.87;;;2.13;;
3347;SDS011;1687;49.540;8.574;2023-04-23T11:30:17;3.30;;;1.97;;
3347;SDS011;1687;49.540;8.574;2023-04-23T11:32:46;5.07;;;2.90;;
3347;SDS011;1687;49.540;8.574;2023-04-23T11:35:14;3.63;;;2.30;;
3347;SDS011;1687;49.540;8.574;2023-04-23T11:37:42;3.10;;;2.17;;
3347;SDS011;1687;49.540;8.574;2023-04-23T11:40:10;3.57;;;2.27;;
3347;SDS011;1687;49.540;8.574;2023-04-23T11:42:41;3.37;;;2.20;;
3347;SDS011;1687;49.540;8.574;2023-04-23T11:45:15;4.27;;;2.43;;
3347;SDS011;1687;49.540;8.574;2023-04-23T11:47:43;8.73;;;2.77;;
3347;SDS011;1687;49.540;8.574;2023-04-23T11:50:10;6.30;;;2.97;;
3347;SDS011;1687;49.540;8.574;2023-04-23T11:52:42;4.80;;;2.73;;
3347;SDS011;1687;49.540;8.574;2023-04-23T11:55:08;5.90;;;3.13;;
3347;SDS011;1687;49.540;8.574;2023-04-23T11:57:41;4.13;;;2.30;;
3347;SDS011;1687;49.540;8.574;2023-04-23T12:02:55;4.20;;;2.10;;
3347;SDS011;1687;49.540;8.574;2023-04-23T12:07:54;5.33;;;2.00;;
3347;SDS011;1687;49.540;8.574;2023-04-23T12:10:31;2.73;;;1.93;;
3347;SDS011;1687;49.540;8.574;2023-04-23T12:12:57;2.63;;;1.60;;
3347;SDS011;1687;49.540;8.574;2023-04-23T12:15:22;3.00;;;2.20;;
3347;SDS011;1687;49.540;8.574;2023-04-23T12:17:49;2.37;;;1.53;;
3347;SDS011;1687;49.540;8.574;2023-04-23T12:20:16;2.80;;;1.63;;
3347;SDS011;1687;49.540;8.574;2023-04-23T12:22:44;3.20;;;1.60;;
3347;SDS011;1687;49.540;8.574;2023-04-23T12:25:10;4.07;;;1.90;;
3347;SDS011;1687;49.540;8.574;2023-04-23T12:27:39;3.80;;;2.07;;
3347;SDS011;1687;49.540;8.574;2023-04-23T12:30:06;10.73;;;2.20;;
3347;SDS011;1687;49.540;8.574;2023-04-23T12:32:33;3.07;;;1.67;;
3347;SDS011;1687;49.540;8.574;2023-04-23T12:34:59;4.13;;;1.70;;
3347;SDS011;1687;49.540;8.574;2023-04-23T12:37:25;3.67;;;1.83;;
3347;SDS011;1687;49.540;8.574;2023-04-23T12:39:55;1.97;;;1.27;;
3347;SDS011;1687;49.540;8.574;2023-04-23T12:42:23;2.40;;;1.43;;
3347;SDS011;1687;49.540;8.574;2023-04-23T12:44:49;5.07;;;2.00;;
3347;SDS011;1687;49.540;8.574;2023-04-23T12:47:15;2.70;;;1.80;;
3347;SDS011;1687;49.540;8.574;2023-04-23T12:49:43;2.37;;;1.53;;
3347;SDS011;1687;49.540;8.574;2023-04-23T12:52:09;2.80;;;1.70;;
3347;SDS011;1687;49.540;8.574;2023-04-23T12:54:37;2.97;;;1.30;;
3347;SDS011;1687;49.540;8.574;2023-04-23T12:57:04;1.67;;;1.20;;
3347;SDS011;1687;49.540;8.574;2023-04-23T12:59:31;1.97;;;1.30;;
3347;SDS011;1687;49.540;8.574;2023-04-23T13:01:58;2.03;;;1.27;;
3347;SDS011;1687;49.540;8.574;2023-04-23T13:04:28;2.93;;;1.50;;
3347;SDS011;1687;49.540;8.574;2023-04-23T13:06:55;10.97;;;1.23;;
3347;SDS011;1687;49.540;8.574;2023-04-23T13:09:20;3.80;;;1.50;;
3347;SDS011;1687;49.540;8.574;2023-04-23T13:11:48;5.53;;;1.20;;
3347;SDS011;1687;49.540;8.574;2023-04-23T13:14:15;2.50;;;1.60;;
3347;SDS011;1687;49.540;8.574;2023-04-23T13:16:41;2.07;;;1.10;;
3347;SDS011;1687;49.540;8.574;2023-04-23T13:19:07;2.60;;;1.27;;
3347;SDS011;1687;49.540;8.574;2023-04-23T13:21:33;2.63;;;1.20;;
3347;SDS011;1687;49.540;8.574;2023-04-23T13:23:58;1.47;;;1.00;;
3347;SDS011;1687;49.540;8.574;2023-04-23T13:26:25;2.77;;;1.30;;
3347;SDS011;1687;49.540;8.574;2023-04-23T13:28:55;5.00;;;1.10;;
3347;SDS011;1687;49.540;8.574;2023-04-23T13:31:22;3.20;;;1.47;;
3347;SDS011;1687;49.540;8.574;2023-04-23T13:33:47;3.43;;;1.20;;
3347;SDS011;1687;49.540;8.574;2023-04-23T13:36:13;4.30;;;1.03;;
3347;SDS011;1687;49.540;8.574;2023-04-23T13:38:39;3.57;;;1.40;;
3347;SDS011;1687;49.540;8.574;2023-04-23T13:41:05;2.00;;;1.20;;
3347;SDS011;1687;49.540;8.574;2023-04-23T13:43:31;1.80;;;1.00;;
3347;SDS011;1687;49.540;8.574;2023-04-23T13:45:56;2.27;;;0.93;;
3347;SDS011;1687;49.540;8.574;2023-04-23T13:48:22;2.37;;;0.90;;
3347;SDS011;1687;49.540;8.574;2023-04-23T13:50:52;1.60;;;0.80;;
3347;SDS011;1687;49.540;8.574;2023-04-23T13:53:19;1.57;;;0.90;;
3347;SDS011;1687;49.540;8.574;2023-04-23T13:55:45;1.40;;;1.00;;
3347;SDS011;1687;49.540;8.574;2023-04-23T13:58:10;1.87;;;1.40;;
3347;SDS011;1687;49.540;8.574;2023-04-23T14:00:36;2.20;;;1.33;;
3347;SDS011;1687;49.540;8.574;2023-04-23T14:03:02;2.40;;;1.80;;
3347;SDS011;1687;49.540;8.574;2023-04-23T14:05:29;8.53;;;1.40;;
3347;SDS011;1687;49.540;8.574;2023-04-23T14:07:55;2.87;;;1.70;;
3347;SDS011;1687;49.540;8.574;2023-04-23T14:10:20;2.40;;;1.57;;
3347;SDS011;1687;49.540;8.574;2023-04-23T14:12:47;3.40;;;1.60;;
3347;SDS011;1687;49.540;8.574;2023-04-23T14:15:13;3.20;;;1.87;;
3347;SDS011;1687;49.540;8.574;2023-04-23T14:17:39;2.20;;;1.20;;
3347;SDS011;1687;49.540;8.574;2023-04-23T14:20:07;2.30;;;1.40;;
3347;SDS011;1687;49.540;8.574;2023-04-23T14:22:33;1.77;;;1.07;;
3347;SDS011;1687;49.540;8.574;2023-04-23T14:25:03;2.90;;;1.70;;
3347;SDS011;1687;49.540;8.574;2023-04-23T14:27:38;4.00;;;1.43;;
3347;SDS011;1687;49.540;8.574;2023-04-23T14:30:16;2.00;;;1.27;;
3347;SDS011;1687;49.540;8.574;2023-04-23T14:32:44;2.83;;;1.77;;
3347;SDS011;1687;49.540;8.574;2023-04-23T14:35:11;2.20;;;1.20;;
3347;SDS011;1687;49.540;8.574;2023-04-23T14:37:38;1.97;;;1.03;;
3347;SDS011;1687;49.540;8.574;2023-04-23T14:40:13;1.80;;;1.20;;
3347;SDS011;1687;49.540;8.574;2023-04-23T14:42:44;3.07;;;1.60;;
3347;SDS011;1687;49.540;8.574;2023-04-23T14:45:11;1.67;;;1.07;;
3347;SDS011;1687;49.540;8.574;2023-04-23T14:47:37;2.20;;;1.43;;
3347;SDS011;1687;49.540;8.574;2023-04-23T14:50:04;2.30;;;1.47;;
3347;SDS011;1687;49.540;8.574;2023-04-23T14:52:31;2.30;;;1.20;;
3347;SDS011;1687;49.540;8.574;2023-04-23T14:54:56;1.83;;;1.40;;
3347;SDS011;1687;49.540;8.574;2023-04-23T14:57:22;2.10;;;1.20;;
3347;SDS011;1687;49.540;8.574;2023-04-23T14:59:48;3.77;;;1.77;;
3347;SDS011;1687;49.540;8.574;2023-04-23T15:02:13;2.80;;;1.60;;
3347;SDS011;1687;49.540;8.574;2023-04-23T15:04:39;2.23;;;1.50;;
3347;SDS011;1687;49.540;8.574;2023-04-23T15:07:05;2.30;;;1.23;;
3347;SDS011;1687;49.540;8.574;2023-04-23T15:09:31;2.80;;;1.40;;
3347;SDS011;1687;49.540;8.574;2023-04-23T15:11:56;5.73;;;2.10;;
3347;SDS011;1687;49.540;8.574;2023-04-23T15:14:31;3.47;;;1.77;;
3347;SDS011;1687;49.540;8.574;2023-04-23T15:17:01;4.63;;;1.60;;
3347;SDS011;1687;49.540;8.574;2023-04-23T15:19:27;4.13;;;1.87;;
3347;SDS011;1687;49.540;8.574;2023-04-23T15:21:54;2.80;;;1.33;;